Time;durP1;ratioP1;P1;durP2;ratioP2;P2;SDS_P1;SDS_P2;PMS_P1;PMS_P2;Temp;Humidity;BMP_temperature;BMP_pressure;BME280_temperature;BME280_humidity;BME280_pressure;Samples;Min_cycle;Max_cycle;Signal;HPM_P1;HPM_P2
2021/10/05 00:02:13;;;;;;;7.18;2.10;;;13.60;99.90;;;;;;5061881;28;20225;-75
2021/10/05 00:04:38;;;;;;;4.65;1.98;;;13.50;99.90;;;;;;5063362;28;20219;-75
2021/10/05 00:07:04;;;;;;;10.82;2.33;;;13.50;99.90;;;;;;5041251;28;20191;-75
2021/10/05 00:09:30;;;;;;;9.02;2.10;;;13.50;99.90;;;;;;5063697;28;20315;-76
2021/10/05 00:11:56;;;;;;;7.13;2.05;;;13.50;99.90;;;;;;5062274;28;20292;-75
2021/10/05 00:14:21;;;;;;;5.70;2.35;;;13.40;99.90;;;;;;5046014;28;20270;-74
2021/10/05 00:16:47;;;;;;;7.25;2.20;;;13.40;99.90;;;;;;5079734;28;20194;-75
2021/10/05 00:19:14;;;;;;;7.47;2.25;;;13.40;99.90;;;;;;5062916;28;20636;-75
2021/10/05 00:21:40;;;;;;;8.77;2.53;;;13.40;99.90;;;;;;5080044;28;20201;-75
2021/10/05 00:24:05;;;;;;;6.35;2.10;;;13.30;99.90;;;;;;5062462;28;20205;-76
2021/10/05 00:26:31;;;;;;;8.50;2.28;;;13.30;99.90;;;;;;5046762;28;20190;-76
2021/10/05 00:28:57;;;;;;;10.35;2.35;;;13.20;99.90;;;;;;5062091;28;20202;-75
2021/10/05 00:31:22;;;;;;;7.53;2.00;;;13.20;99.90;;;;;;5043131;28;20195;-76
2021/10/05 00:33:48;;;;;;;3.15;2.00;;;13.20;99.90;;;;;;5062979;28;20199;-76
2021/10/05 00:36:13;;;;;;;9.10;2.40;;;13.10;99.90;;;;;;5047657;28;20227;-75
2021/10/05 00:38:39;;;;;;;8.13;2.50;;;13.10;99.90;;;;;;5061068;28;20182;-76
2021/10/05 00:41:05;;;;;;;9.68;2.08;;;13.10;99.90;;;;;;5068297;28;20186;-75
2021/10/05 00:43:30;;;;;;;7.75;2.10;;;13.00;99.90;;;;;;5045807;28;20202;-75
2021/10/05 00:45:56;;;;;;;5.40;2.15;;;13.00;99.90;;;;;;5068790;28;20273;-74
2021/10/05 00:48:22;;;;;;;6.05;2.08;;;13.00;99.90;;;;;;5067897;28;20194;-78
2021/10/05 00:50:48;;;;;;;5.97;2.22;;;13.00;99.90;;;;;;5068113;28;20186;-76
2021/10/05 00:53:15;;;;;;;7.63;2.22;;;12.90;99.90;;;;;;5050841;28;20184;-77
2021/10/05 00:55:40;;;;;;;9.73;2.20;;;12.90;99.90;;;;;;5083040;28;20590;-77
2021/10/05 00:58:06;;;;;;;9.18;2.30;;;12.90;99.90;;;;;;5057693;28;20188;-76
2021/10/05 01:00:32;;;;;;;10.55;2.25;;;12.90;99.90;;;;;;5066999;28;20274;-77
2021/10/05 01:02:58;;;;;;;10.18;2.25;;;12.80;99.90;;;;;;5048106;28;20314;-78
2021/10/05 01:05:24;;;;;;;10.10;2.17;;;12.80;99.90;;;;;;5067956;28;20298;-77
2021/10/05 01:07:50;;;;;;;6.13;2.08;;;12.80;99.90;;;;;;5049028;28;20198;-76
2021/10/05 01:10:17;;;;;;;7.30;2.33;;;12.80;99.90;;;;;;5047144;28;20186;-77
2021/10/05 01:12:51;;;;;;;7.43;1.92;;;12.80;99.90;;;;;;5048640;28;20186;-77
2021/10/05 01:15:29;;;;;;;8.18;2.00;;;12.80;99.90;;;;;;5064583;28;20236;-76
2021/10/05 01:17:55;;;;;;;4.55;1.92;;;12.70;99.90;;;;;;5047495;28;20197;-76
2021/10/05 01:20:21;;;;;;;15.55;2.50;;;12.70;99.90;;;;;;5067332;28;20178;-76
2021/10/05 01:22:47;;;;;;;4.97;1.77;;;12.70;99.90;;;;;;5047208;28;20698;-75
2021/10/05 01:25:15;;;;;;;3.75;1.83;;;12.70;99.90;;;;;;5048047;28;20274;-76
2021/10/05 01:27:50;;;;;;;6.88;1.80;;;12.70;99.90;;;;;;5048436;28;20929;-75
2021/10/05 01:30:19;;;;;;;9.10;2.10;;;12.80;99.90;;;;;;5049547;28;20236;-75
2021/10/05 01:32:45;;;;;;;6.82;1.75;;;12.70;99.90;;;;;;5066430;28;20183;-75
2021/10/05 01:35:11;;;;;;;11.43;2.00;;;12.70;99.90;;;;;;5065079;28;20180;-75
2021/10/05 01:37:40;;;;;;;4.43;1.90;;;12.70;99.90;;;;;;5050177;28;20207;-75
2021/10/05 01:40:08;;;;;;;10.77;2.00;;;12.70;99.90;;;;;;5060937;28;20183;-75
2021/10/05 01:42:35;;;;;;;4.57;1.70;;;12.70;99.90;;;;;;5065948;28;20210;-75
2021/10/05 01:45:01;;;;;;;8.07;1.88;;;12.70;99.90;;;;;;5065138;28;20182;-75
2021/10/05 01:47:26;;;;;;;6.57;1.90;;;12.60;99.90;;;;;;5065923;28;20635;-75
2021/10/05 01:49:52;;;;;;;13.32;2.20;;;12.60;99.90;;;;;;5079507;28;20201;-75
2021/10/05 01:52:18;;;;;;;3.67;1.40;;;12.60;99.90;;;;;;5065785;28;20217;-74
2021/10/05 01:54:43;;;;;;;7.10;1.58;;;12.60;99.90;;;;;;5081073;28;20639;-75
2021/10/05 01:57:09;;;;;;;5.18;1.98;;;12.60;99.90;;;;;;5065020;28;20198;-74
2021/10/05 01:59:35;;;;;;;11.82;2.33;;;12.60;99.90;;;;;;5063991;28;20213;-75
2021/10/05 02:02:00;;;;;;;5.68;1.65;;;12.50;99.90;;;;;;5064099;28;20726;-75
2021/10/05 02:04:26;;;;;;;7.65;1.85;;;12.50;99.90;;;;;;5067491;28;20211;-75
2021/10/05 02:06:52;;;;;;;6.20;1.90;;;12.50;99.90;;;;;;5062195;28;20194;-75
2021/10/05 02:09:17;;;;;;;7.20;1.80;;;12.50;99.90;;;;;;5046998;28;20215;-75
2021/10/05 02:11:43;;;;;;;7.13;2.00;;;12.50;99.90;;;;;;5047869;28;20238;-75
2021/10/05 02:14:09;;;;;;;5.45;1.80;;;12.50;99.90;;;;;;5078082;28;20187;-74
2021/10/05 02:16:35;;;;;;;5.70;1.67;;;12.40;99.90;;;;;;5048119;28;20288;-74
2021/10/05 02:19:02;;;;;;;8.73;1.60;;;12.40;99.90;;;;;;5065283;28;20182;-74
2021/10/05 02:21:28;;;;;;;5.60;1.70;;;12.50;99.90;;;;;;5047327;28;20277;-75
2021/10/05 02:26:40;;;;;;;5.75;1.88;;;12.40;99.90;;;;;;5064355;28;20190;-74
2021/10/05 02:29:06;;;;;;;6.18;1.75;;;12.40;99.90;;;;;;5065307;28;20651;-73
2021/10/05 02:31:32;;;;;;;4.88;1.73;;;12.40;99.90;;;;;;5064804;28;20241;-74
2021/10/05 02:33:58;;;;;;;7.65;1.60;;;12.40;99.90;;;;;;5065739;28;20539;-75
2021/10/05 02:36:23;;;;;;;10.82;1.77;;;12.40;99.90;;;;;;5046274;28;20183;-74
2021/10/05 02:38:49;;;;;;;12.05;2.67;;;12.40;99.90;;;;;;5048362;28;20218;-75
2021/10/05 02:41:15;;;;;;;7.90;1.70;;;12.40;99.90;;;;;;5061910;28;20206;-75
2021/10/05 02:43:40;;;;;;;10.05;1.80;;;12.40;99.90;;;;;;5048787;28;20268;-75
2021/10/05 02:46:06;;;;;;;9.70;1.92;;;12.40;99.90;;;;;;5063867;28;20201;-75
2021/10/05 02:48:32;;;;;;;9.23;1.95;;;12.30;99.90;;;;;;5062436;28;20174;-75
2021/10/05 02:50:58;;;;;;;6.63;1.67;;;12.30;99.90;;;;;;5064985;28;20208;-75
2021/10/05 02:53:23;;;;;;;6.88;1.60;;;12.30;99.90;;;;;;5064943;28;20186;-75
2021/10/05 02:55:49;;;;;;;6.18;1.60;;;12.30;99.90;;;;;;5063956;28;20190;-75
2021/10/05 02:58:16;;;;;;;6.82;1.73;;;12.30;99.90;;;;;;5065496;28;20182;-74
2021/10/05 03:00:42;;;;;;;6.60;1.50;;;12.30;99.90;;;;;;5064709;28;20262;-74
2021/10/05 03:03:08;;;;;;;6.28;1.55;;;12.20;99.90;;;;;;5063491;28;20643;-75
2021/10/05 03:05:34;;;;;;;7.72;2.03;;;12.20;99.90;;;;;;5062988;28;20214;-75
2021/10/05 03:07:59;;;;;;;11.27;1.88;;;12.20;99.90;;;;;;5065382;28;20181;-75
2021/10/05 03:10:25;;;;;;;4.20;1.30;;;12.20;99.90;;;;;;5064254;28;20182;-76
2021/10/05 03:12:51;;;;;;;3.50;1.55;;;12.20;99.90;;;;;;5064876;28;20960;-76
2021/10/05 03:15:17;;;;;;;6.28;1.35;;;12.20;99.90;;;;;;5063737;28;20265;-75
2021/10/05 03:17:43;;;;;;;5.47;1.30;;;12.20;99.90;;;;;;5062800;28;20289;-76
2021/10/05 03:20:10;;;;;;;6.20;1.60;;;12.20;99.90;;;;;;5047843;28;20700;-74
2021/10/05 03:22:36;;;;;;;8.60;1.80;;;12.20;99.90;;;;;;5079297;28;20210;-75
2021/10/05 03:25:03;;;;;;;3.85;1.55;;;12.20;99.90;;;;;;5063813;28;20281;-76
2021/10/05 03:27:31;;;;;;;8.98;1.75;;;12.20;99.90;;;;;;5064819;28;20187;-75
2021/10/05 03:29:56;;;;;;;6.10;1.80;;;12.10;99.90;;;;;;5063157;28;20519;-75
2021/10/05 03:32:22;;;;;;;4.45;1.58;;;12.10;99.90;;;;;;5063235;28;20228;-76
2021/10/05 03:34:48;;;;;;;10.75;1.73;;;12.10;99.90;;;;;;5062988;28;20711;-75
2021/10/05 03:37:13;;;;;;;7.72;2.20;;;12.10;99.90;;;;;;5063014;28;20670;-75
2021/10/05 03:39:39;;;;;;;9.05;1.45;;;12.10;99.90;;;;;;5062940;28;20654;-75
2021/10/05 03:42:05;;;;;;;4.65;1.60;;;12.10;99.90;;;;;;5063121;28;20220;-75
2021/10/05 03:44:30;;;;;;;7.45;1.67;;;12.10;99.90;;;;;;5064011;28;20179;-75
2021/10/05 03:46:56;;;;;;;5.65;1.60;;;12.00;99.90;;;;;;5064330;28;20195;-74
2021/10/05 03:49:22;;;;;;;4.38;1.58;;;12.10;99.90;;;;;;5061634;28;20733;-75
2021/10/05 03:51:47;;;;;;;4.82;1.67;;;12.00;99.90;;;;;;5064821;28;20546;-74
2021/10/05 03:54:14;;;;;;;5.25;1.70;;;12.00;99.90;;;;;;5063212;28;20189;-74
2021/10/05 03:56:39;;;;;;;4.95;1.70;;;12.00;99.90;;;;;;5065375;28;20519;-76
2021/10/05 03:59:05;;;;;;;5.13;1.55;;;11.90;99.90;;;;;;5063894;28;20281;-75
2021/10/05 04:01:31;;;;;;;5.38;1.90;;;11.90;99.90;;;;;;5042079;28;20313;-76
2021/10/05 04:03:56;;;;;;;13.75;1.95;;;11.90;99.90;;;;;;5064299;28;20225;-76
2021/10/05 04:06:22;;;;;;;5.60;2.30;;;11.80;99.90;;;;;;5076856;28;20182;-76
2021/10/05 04:08:48;;;;;;;5.22;1.70;;;11.80;99.90;;;;;;5078928;28;20187;-76
2021/10/05 04:11:13;;;;;;;6.47;1.80;;;11.80;99.90;;;;;;5046478;28;20191;-77
2021/10/05 04:13:40;;;;;;;9.18;2.08;;;11.80;99.90;;;;;;5061920;28;20195;-75
2021/10/05 04:16:06;;;;;;;9.90;1.60;;;11.80;99.90;;;;;;5063773;28;20746;-74
2021/10/05 04:18:33;;;;;;;4.82;1.85;;;11.70;99.90;;;;;;5063149;28;20269;-73
2021/10/05 04:20:59;;;;;;;5.75;2.13;;;11.70;99.90;;;;;;5045500;28;20683;-73
2021/10/05 04:23:24;;;;;;;3.47;1.70;;;11.70;99.90;;;;;;5062589;28;20228;-74
2021/10/05 04:25:50;;;;;;;8.52;1.95;;;11.70;99.90;;;;;;5061610;28;20190;-74
2021/10/05 04:28:16;;;;;;;4.30;1.75;;;11.70;99.90;;;;;;5045802;28;20178;-74
2021/10/05 04:30:41;;;;;;;4.57;1.45;;;11.70;99.90;;;;;;5044460;28;20224;-74
2021/10/05 04:33:07;;;;;;;5.80;1.90;;;11.70;99.90;;;;;;5046360;28;20202;-74
2021/10/05 04:35:33;;;;;;;8.93;1.70;;;11.60;99.90;;;;;;5078278;28;20277;-73
2021/10/05 04:37:58;;;;;;;6.15;1.98;;;11.60;99.90;;;;;;5044745;28;20191;-74
2021/10/05 04:40:24;;;;;;;4.32;1.80;;;11.60;99.90;;;;;;5044636;28;20198;-73
2021/10/05 04:42:50;;;;;;;4.88;2.00;;;11.60;99.90;;;;;;5060961;28;20658;-73
2021/10/05 04:45:16;;;;;;;4.95;2.10;;;11.60;99.90;;;;;;5058907;28;20187;-74
2021/10/05 04:47:42;;;;;;;5.60;2.05;;;11.60;99.90;;;;;;5041233;28;20190;-73
2021/10/05 04:50:09;;;;;;;8.38;2.05;;;11.60;99.90;;;;;;5077498;28;20270;-73
2021/10/05 04:52:35;;;;;;;4.57;2.00;;;11.50;99.90;;;;;;5043250;28;20651;-73
2021/10/05 04:55:01;;;;;;;5.47;2.10;;;11.50;99.90;;;;;;5044589;28;20324;-73
2021/10/05 04:57:26;;;;;;;8.73;2.03;;;11.50;99.90;;;;;;5063199;28;20183;-73
2021/10/05 04:59:52;;;;;;;8.50;2.10;;;11.50;99.90;;;;;;5044641;28;20198;-73
2021/10/05 05:02:18;;;;;;;12.10;2.30;;;11.50;99.90;;;;;;5044339;28;20231;-73
2021/10/05 05:04:44;;;;;;;3.45;1.80;;;11.40;99.90;;;;;;5060058;28;20278;-72
2021/10/05 05:07:09;;;;;;;6.32;2.38;;;11.50;99.90;;;;;;5058078;28;20179;-73
2021/10/05 05:09:35;;;;;;;8.45;2.00;;;11.40;99.90;;;;;;5059623;28;20186;-72
2021/10/05 05:12:01;;;;;;;6.28;2.28;;;11.40;99.90;;;;;;5062188;28;20280;-73
2021/10/05 05:14:27;;;;;;;5.90;2.13;;;11.50;99.90;;;;;;5058976;28;20194;-75
2021/10/05 05:16:52;;;;;;;8.23;2.30;;;11.40;99.90;;;;;;5061880;28;20269;-74
2021/10/05 05:19:18;;;;;;;4.35;1.95;;;11.40;99.90;;;;;;5061297;28;20179;-74
2021/10/05 05:21:44;;;;;;;8.05;2.42;;;11.50;99.90;;;;;;5063224;28;20183;-75
2021/10/05 05:24:10;;;;;;;8.02;2.15;;;11.40;99.90;;;;;;5044844;28;20211;-74
2021/10/05 05:26:36;;;;;;;4.88;2.65;;;11.50;99.90;;;;;;5063426;28;20187;-74
2021/10/05 05:29:01;;;;;;;6.78;2.28;;;11.50;99.90;;;;;;5049211;28;20726;-75
2021/10/05 05:31:27;;;;;;;4.20;1.90;;;11.50;99.90;;;;;;5061735;28;20267;-75
2021/10/05 05:33:52;;;;;;;8.50;2.63;;;11.50;99.90;;;;;;5046940;28;20762;-75
2021/10/05 05:36:18;;;;;;;7.28;2.40;;;11.40;99.90;;;;;;5066631;28;20277;-74
2021/10/05 05:38:44;;;;;;;11.05;2.50;;;11.50;99.90;;;;;;5063102;28;20202;-74
2021/10/05 05:41:10;;;;;;;7.88;2.60;;;11.40;99.90;;;;;;5065912;28;20307;-74
2021/10/05 05:43:35;;;;;;;7.80;2.40;;;11.40;99.90;;;;;;5065103;28;20210;-74
2021/10/05 05:46:01;;;;;;;8.65;2.28;;;11.40;99.90;;;;;;5065352;28;20897;-74
2021/10/05 05:48:27;;;;;;;9.45;2.50;;;11.40;99.90;;;;;;5065230;28;20187;-73
2021/10/05 05:50:53;;;;;;;4.72;2.70;;;11.40;99.90;;;;;;5046800;28;20189;-75
2021/10/05 05:53:19;;;;;;;5.68;2.40;;;11.40;99.90;;;;;;5065079;28;20190;-74
2021/10/05 05:55:45;;;;;;;11.13;3.00;;;11.40;99.90;;;;;;5064438;28;20718;-74
2021/10/05 05:58:16;;;;;;;12.52;3.03;;;11.40;99.90;;;;;;5063622;28;20182;-75
2021/10/05 06:00:45;;;;;;;10.27;2.83;;;11.40;99.90;;;;;;5046011;28;20201;-73
2021/10/05 06:03:12;;;;;;;5.60;2.58;;;11.40;99.90;;;;;;5065274;28;21047;-73
2021/10/05 06:05:39;;;;;;;5.85;2.58;;;11.40;99.90;;;;;;5046220;28;20189;-73
2021/10/05 06:08:05;;;;;;;9.27;2.60;;;11.30;99.90;;;;;;5077302;28;20222;-74
2021/10/05 06:10:31;;;;;;;7.82;2.63;;;11.30;99.90;;;;;;5064424;28;20304;-73
2021/10/05 06:12:57;;;;;;;7.65;2.55;;;11.30;99.90;;;;;;5065503;28;20198;-73
2021/10/05 06:15:24;;;;;;;6.78;2.45;;;11.30;99.90;;;;;;5064289;28;20174;-74
2021/10/05 06:17:50;;;;;;;10.38;3.60;;;11.30;99.90;;;;;;5066792;28;20528;-74
2021/10/05 06:20:24;;;;;;;10.77;2.63;;;11.30;99.90;;;;;;5047577;28;20183;-81
2021/10/05 06:22:51;;;;;;;5.97;2.40;;;11.30;99.90;;;;;;5078832;28;20259;-74
2021/10/05 06:25:20;;;;;;;4.78;2.28;;;11.40;99.90;;;;;;5064933;28;20186;-74
2021/10/05 06:27:46;;;;;;;7.28;2.40;;;11.40;99.90;;;;;;5044038;28;20183;-75
2021/10/05 06:30:15;;;;;;;9.02;2.40;;;11.40;99.90;;;;;;5063199;28;20187;-73
2021/10/05 06:32:41;;;;;;;4.07;2.05;;;11.40;99.90;;;;;;5062675;28;20194;-73
2021/10/05 06:35:08;;;;;;;12.38;2.08;;;11.40;99.90;;;;;;5064386;28;20182;-74
2021/10/05 06:37:34;;;;;;;17.83;3.30;;;11.50;99.90;;;;;;5061451;28;20674;-76
2021/10/05 06:39:59;;;;;;;8.45;2.40;;;11.50;99.90;;;;;;5046998;28;20186;-70
2021/10/05 06:42:25;;;;;;;9.02;2.20;;;11.50;99.90;;;;;;5060252;28;20289;-72
2021/10/05 06:44:51;;;;;;;5.50;2.22;;;11.50;99.90;;;;;;5081234;28;20183;-72
2021/10/05 06:47:16;;;;;;;4.25;2.40;;;11.60;99.90;;;;;;5060542;28;20282;-72
2021/10/05 06:49:42;;;;;;;6.95;2.33;;;11.60;99.90;;;;;;5057954;28;20176;-74
2021/10/05 06:52:08;;;;;;;5.68;2.10;;;11.60;99.90;;;;;;5057942;28;20182;-72
2021/10/05 06:54:34;;;;;;;6.43;2.15;;;11.70;99.90;;;;;;5060821;28;20189;-74
2021/10/05 06:57:00;;;;;;;3.70;2.35;;;11.70;99.90;;;;;;5064364;28;20194;-73
2021/10/05 06:59:26;;;;;;;4.47;1.95;;;11.70;99.90;;;;;;5062975;28;20183;-73
2021/10/05 07:01:52;;;;;;;8.63;1.80;;;11.70;99.90;;;;;;5061820;28;20219;-74
2021/10/05 07:04:17;;;;;;;5.55;1.70;;;11.80;99.90;;;;;;5064508;28;20924;-74
2021/10/05 07:06:44;;;;;;;7.80;2.00;;;11.80;99.90;;;;;;5045471;28;20190;-73
2021/10/05 07:09:11;;;;;;;8.77;1.77;;;11.80;99.90;;;;;;5062218;28;20175;-73
2021/10/05 07:11:37;;;;;;;5.28;1.92;;;11.90;99.90;;;;;;5064653;28;20186;-73
2021/10/05 07:14:02;;;;;;;5.32;1.95;;;11.90;99.90;;;;;;5065575;28;20191;-73
2021/10/05 07:16:29;;;;;;;8.43;2.05;;;11.90;99.90;;;;;;5062321;28;20201;-73
2021/10/05 07:18:54;;;;;;;7.40;2.13;;;12.00;99.90;;;;;;5043923;28;20189;-72
2021/10/05 07:21:22;;;;;;;6.13;1.83;;;12.10;99.90;;;;;;5061213;28;20568;-71
2021/10/05 07:23:49;;;;;;;5.57;1.90;;;12.10;99.90;;;;;;5062846;28;20233;-71
2021/10/05 07:26:16;;;;;;;5.38;2.13;;;12.10;99.90;;;;;;5061708;28;20500;-71
2021/10/05 07:28:41;;;;;;;4.25;2.22;;;12.20;99.90;;;;;;5063884;28;20667;-74
2021/10/05 07:31:07;;;;;;;8.70;2.10;;;12.20;99.90;;;;;;5062689;28;20199;-72
2021/10/05 07:33:33;;;;;;;5.70;1.90;;;12.20;99.90;;;;;;5046196;28;20240;-72
2021/10/05 07:35:58;;;;;;;5.55;1.70;;;12.30;99.90;;;;;;5062606;28;20200;-73
2021/10/05 07:38:24;;;;;;;7.43;1.80;;;12.40;99.90;;;;;;5061349;28;20595;-72
2021/10/05 07:40:50;;;;;;;7.03;1.90;;;12.40;99.90;;;;;;5045761;28;20221;-72
2021/10/05 07:43:15;;;;;;;4.72;1.70;;;12.40;99.90;;;;;;5063003;28;20214;-72
2021/10/05 07:45:42;;;;;;;8.95;1.88;;;12.50;99.90;;;;;;5062113;28;20570;-72
2021/10/05 07:48:08;;;;;;;5.22;1.98;;;12.50;99.90;;;;;;5062782;28;20196;-72
2021/10/05 07:50:34;;;;;;;3.65;1.85;;;12.50;99.90;;;;;;5060309;28;20186;-74
2021/10/05 07:53:01;;;;;;;5.68;1.90;;;12.60;99.90;;;;;;5063937;28;20201;-71
2021/10/05 07:55:29;;;;;;;6.93;1.60;;;12.70;99.90;;;;;;5060482;28;20190;-73
2021/10/05 07:57:55;;;;;;;6.55;1.70;;;12.70;99.90;;;;;;5046353;28;20198;-72
2021/10/05 08:00:22;;;;;;;5.82;1.83;;;12.80;99.90;;;;;;5062810;28;20297;-71
2021/10/05 08:02:48;;;;;;;4.60;1.77;;;12.90;99.90;;;;;;5061641;28;20623;-73
2021/10/05 08:05:15;;;;;;;5.00;1.60;;;13.00;99.90;;;;;;5062198;28;20178;-73
2021/10/05 08:07:42;;;;;;;8.68;1.83;;;13.20;99.90;;;;;;5060776;28;20210;-72
2021/10/05 08:10:09;;;;;;;8.18;1.77;;;13.30;99.90;;;;;;5063975;28;20183;-71
2021/10/05 08:12:34;;;;;;;4.75;1.83;;;13.60;99.90;;;;;;5062386;28;20652;-72
2021/10/05 08:15:00;;;;;;;8.93;1.40;;;14.20;99.90;;;;;;5045761;28;20259;-73
2021/10/05 08:17:26;;;;;;;6.22;1.73;;;14.90;99.90;;;;;;5078001;28;20204;-73
2021/10/05 08:19:52;;;;;;;9.65;1.40;;;15.60;99.90;;;;;;5060766;28;20531;-72
2021/10/05 08:22:17;;;;;;;5.30;1.40;;;16.40;99.90;;;;;;5059490;28;20193;-73
2021/10/05 08:24:43;;;;;;;2.75;1.20;;;17.20;99.90;;;;;;5062125;28;20179;-74
2021/10/05 08:27:10;;;;;;;5.32;1.60;;;18.00;99.90;;;;;;5063827;28;20185;-75
2021/10/05 08:29:40;;;;;;;5.07;1.10;;;18.80;99.90;;;;;;5061984;28;21675;-72
2021/10/05 08:32:07;;;;;;;5.18;1.20;;;19.60;99.90;;;;;;5062675;28;20255;-73
2021/10/05 08:34:34;;;;;;;5.45;1.23;;;20.00;99.90;;;;;;5062419;28;20194;-75
2021/10/05 08:37:00;;;;;;;5.00;1.10;;;20.70;98.80;;;;;;5062590;28;20214;-71
2021/10/05 08:39:25;;;;;;;6.88;1.20;;;21.40;97.30;;;;;;5064356;28;20534;-72
2021/10/05 08:41:51;;;;;;;5.15;1.10;;;21.90;94.70;;;;;;5061262;28;20179;-74
2021/10/05 08:44:18;;;;;;;4.82;1.20;;;22.30;93.00;;;;;;5060708;28;20206;-75
2021/10/05 08:46:44;;;;;;;5.55;1.75;;;22.80;91.00;;;;;;5062389;28;20170;-73
2021/10/05 08:49:10;;;;;;;3.00;1.05;;;23.30;88.60;;;;;;5061428;28;20190;-74
2021/10/05 08:51:37;;;;;;;5.35;1.17;;;24.00;85.70;;;;;;5062310;28;20523;-73
2021/10/05 08:54:04;;;;;;;3.40;0.90;;;24.40;79.60;;;;;;5077740;28;20210;-74
2021/10/05 08:56:30;;;;;;;4.82;1.00;;;24.80;77.80;;;;;;5043857;28;20201;-75
2021/10/05 08:58:55;;;;;;;5.60;1.10;;;25.20;74.30;;;;;;5043958;28;20252;-75
2021/10/05 09:01:21;;;;;;;3.13;0.98;;;25.40;72.80;;;;;;5064798;28;20682;-74
2021/10/05 09:03:49;;;;;;;2.97;1.00;;;24.80;70.20;;;;;;5067958;28;20218;-74
2021/10/05 09:06:15;;;;;;;4.20;0.90;;;24.00;70.90;;;;;;5079901;28;20500;-74
2021/10/05 09:08:43;;;;;;;3.85;0.90;;;23.20;72.50;;;;;;5065296;28;20653;-75
2021/10/05 09:11:10;;;;;;;5.82;1.08;;;22.40;74.20;;;;;;5065187;28;20186;-73
2021/10/05 09:13:40;;;;;;;9.73;1.40;;;21.50;76.00;;;;;;5066296;28;20187;-73
2021/10/05 09:16:19;;;;;;;6.50;1.00;;;20.80;78.20;;;;;;5048692;28;20287;-74
2021/10/05 09:19:09;;;;;;;5.00;1.17;;;20.10;80.80;;;;;;5047586;28;20218;-74
2021/10/05 09:21:49;;;;;;;6.18;1.10;;;19.40;83.10;;;;;;5066265;28;20191;-74
2021/10/05 09:24:28;;;;;;;3.28;1.20;;;19.10;85.30;;;;;;5047095;28;20213;-75
2021/10/05 09:26:59;;;;;;;6.80;1.45;;;18.90;86.90;;;;;;5066463;28;20311;-76
2021/10/05 09:29:30;;;;;;;2.70;1.20;;;19.00;87.30;;;;;;5064949;28;20217;-74
2021/10/05 09:32:03;;;;;;;5.10;1.20;;;19.00;87.80;;;;;;5065808;28;20602;-75
2021/10/05 09:34:51;;;;;;;6.75;1.30;;;19.10;88.30;;;;;;5065571;28;20193;-73
2021/10/05 09:37:23;;;;;;;3.15;1.30;;;19.10;88.40;;;;;;5064206;28;20198;-74
2021/10/05 09:40:12;;;;;;;4.75;1.42;;;19.20;88.20;;;;;;5063843;28;20835;-75
2021/10/05 09:42:44;;;;;;;6.97;1.10;;;19.20;88.20;;;;;;5066070;28;20207;-74
2021/10/05 09:45:11;;;;;;;4.03;1.40;;;19.10;88.30;;;;;;5066719;28;20182;-73
2021/10/05 09:47:43;;;;;;;9.35;1.50;;;19.00;89.30;;;;;;5046066;28;20194;-73
2021/10/05 09:50:30;;;;;;;9.05;1.42;;;19.00;89.40;;;;;;5062122;28;20187;-75
2021/10/05 09:52:59;;;;;;;4.28;1.17;;;18.90;89.70;;;;;;5059774;28;20198;-70
2021/10/05 09:55:28;;;;;;;3.55;0.95;;;18.70;90.10;;;;;;5047249;28;20187;-73
2021/10/05 09:57:54;;;;;;;6.22;1.45;;;18.60;90.40;;;;;;5028785;28;20179;-73
2021/10/05 10:00:23;;;;;;;3.75;1.10;;;18.50;90.70;;;;;;5058318;28;20277;-73
2021/10/05 10:02:50;;;;;;;4.72;1.30;;;18.40;90.80;;;;;;5039771;28;20224;-74
2021/10/05 10:05:18;;;;;;;2.97;1.30;;;18.30;91.00;;;;;;5041161;28;20224;-74
2021/10/05 10:07:47;;;;;;;8.18;1.48;;;18.30;91.10;;;;;;5037608;28;20623;-74
2021/10/05 10:10:15;;;;;;;7.07;1.10;;;18.20;91.30;;;;;;5063402;28;20206;-76
2021/10/05 10:12:47;;;;;;;7.82;1.20;;;18.10;91.60;;;;;;5062960;28;20186;-75
2021/10/05 10:15:13;;;;;;;6.85;1.25;;;18.10;91.70;;;;;;5065780;28;20876;-74
2021/10/05 10:17:40;;;;;;;4.53;1.33;;;18.20;92.00;;;;;;5065310;28;20178;-74
2021/10/05 10:20:07;;;;;;;3.30;1.10;;;18.30;92.00;;;;;;5064162;28;20232;-74
2021/10/05 10:22:43;;;;;;;5.45;1.35;;;18.40;92.00;;;;;;5064306;28;20209;-74
2021/10/05 10:25:22;;;;;;;3.72;1.00;;;18.30;91.90;;;;;;5065249;28;20240;-74
2021/10/05 10:27:48;;;;;;;5.43;1.02;;;18.40;92.00;;;;;;5066261;28;20195;-74
2021/10/05 10:30:14;;;;;;;7.93;1.20;;;18.40;91.90;;;;;;5062939;28;20183;-73
2021/10/05 10:32:53;;;;;;;7.22;1.23;;;18.30;91.80;;;;;;5065418;28;20622;-74
2021/10/05 10:35:20;;;;;;;4.55;1.55;;;18.20;92.00;;;;;;5064416;28;20195;-75
2021/10/05 10:37:50;;;;;;;2.63;0.95;;;18.10;92.00;;;;;;5065339;28;20190;-74
2021/10/05 10:40:19;;;;;;;3.58;1.00;;;18.00;92.30;;;;;;5079460;28;20302;-74
2021/10/05 10:42:45;;;;;;;4.28;1.00;;;17.90;92.40;;;;;;5048569;28;20247;-73
2021/10/05 10:45:18;;;;;;;6.82;1.50;;;17.90;92.40;;;;;;5063575;28;20183;-73
2021/10/05 10:47:45;;;;;;;4.18;1.08;;;17.80;92.60;;;;;;5046904;28;20190;-74
2021/10/05 10:50:13;;;;;;;4.53;1.15;;;17.70;92.80;;;;;;5077972;28;20190;-75
2021/10/05 10:52:45;;;;;;;3.42;1.33;;;17.70;93.00;;;;;;5063153;28;20186;-74
2021/10/05 10:55:14;;;;;;;6.80;1.13;;;17.60;93.10;;;;;;5059890;28;20336;-72
2021/10/05 10:57:52;;;;;;;4.50;1.20;;;17.60;93.20;;;;;;5063166;28;20533;-73
2021/10/05 11:00:29;;;;;;;3.08;1.13;;;17.60;93.30;;;;;;5079849;28;20243;-74
2021/10/05 11:03:00;;;;;;;7.10;1.13;;;17.50;93.60;;;;;;5045869;28;20234;-73
2021/10/05 11:05:31;;;;;;;5.32;1.17;;;17.40;93.50;;;;;;5060661;28;20274;-73
2021/10/05 11:07:58;;;;;;;7.25;1.45;;;17.30;93.90;;;;;;5064426;28;20201;-73
2021/10/05 11:10:28;;;;;;;4.13;1.15;;;17.30;94.00;;;;;;5060543;28;20182;-72
2021/10/05 11:12:56;;;;;;;6.53;1.33;;;17.20;94.40;;;;;;5065381;28;20281;-73
2021/10/05 11:15:44;;;;;;;5.22;1.45;;;17.20;94.50;;;;;;5062797;28;20223;-73
2021/10/05 11:18:13;;;;;;;5.72;1.30;;;17.10;94.70;;;;;;5063789;28;20252;-74
2021/10/05 11:20:54;;;;;;;6.63;1.40;;;17.20;94.80;;;;;;5063021;28;21564;-74
2021/10/05 11:23:23;;;;;;;3.83;1.40;;;17.20;94.90;;;;;;5063479;28;20214;-73
2021/10/05 11:25:52;;;;;;;7.40;1.60;;;17.20;94.80;;;;;;5063134;28;20183;-73
2021/10/05 11:28:27;;;;;;;4.88;1.75;;;17.20;94.80;;;;;;5048371;28;20190;-72
2021/10/05 11:30:55;;;;;;;5.13;1.40;;;17.10;95.00;;;;;;5075914;28;20217;-76
2021/10/05 11:33:42;;;;;;;6.18;1.45;;;17.10;95.20;;;;;;5058907;28;20202;-75
2021/10/05 11:36:17;;;;;;;7.32;1.42;;;17.10;95.30;;;;;;5060541;28;20203;-73
2021/10/05 11:38:46;;;;;;;5.22;1.88;;;16.90;96.00;;;;;;5077596;28;20196;-73
2021/10/05 11:41:13;;;;;;;6.72;1.63;;;16.80;96.20;;;;;;5062937;28;20194;-73
2021/10/05 11:43:40;;;;;;;7.47;3.10;;;16.60;96.40;;;;;;5063502;28;20238;-74
2021/10/05 11:46:09;;;;;;;6.45;2.28;;;16.40;97.10;;;;;;5043383;28;20179;-74
2021/10/05 11:48:50;;;;;;;11.55;2.45;;;16.20;97.80;;;;;;5078724;28;20190;-73
2021/10/05 11:51:19;;;;;;;9.43;1.92;;;16.00;98.50;;;;;;5078152;28;20181;-73
2021/10/05 11:53:46;;;;;;;5.25;1.60;;;15.90;99.10;;;;;;5061920;28;20207;-72
2021/10/05 11:56:14;;;;;;;9.07;1.90;;;15.80;99.40;;;;;;5061822;28;20195;-72
2021/10/05 11:58:40;;;;;;;5.18;1.70;;;15.70;99.90;;;;;;5062286;28;20187;-72
2021/10/05 12:01:22;;;;;;;6.18;2.00;;;15.60;99.90;;;;;;5061506;28;20675;-73
2021/10/05 12:03:49;;;;;;;10.40;2.03;;;15.50;99.90;;;;;;5061266;28;20214;-71
2021/10/05 12:06:52;;;;;;;7.22;2.20;;;15.30;99.90;;;;;;5041601;28;20229;-71
2021/10/05 12:09:26;;;;;;;7.38;2.15;;;15.30;99.90;;;;;;5061349;28;20206;-71
2021/10/05 12:11:57;;;;;;;10.30;2.22;;;15.20;99.90;;;;;;5063365;28;20267;-73
2021/10/05 12:14:28;;;;;;;10.23;2.00;;;15.20;99.90;;;;;;5060138;28;20193;-73
2021/10/05 12:17:20;;;;;;;9.35;2.25;;;15.10;99.90;;;;;;5064557;28;20194;-73
2021/10/05 12:19:49;;;;;;;6.80;2.13;;;15.10;99.90;;;;;;5060491;28;20190;-71
2021/10/05 12:22:28;;;;;;;7.00;2.10;;;15.10;99.90;;;;;;5043164;28;20194;-73
2021/10/05 12:24:55;;;;;;;5.57;1.90;;;15.10;99.90;;;;;;5064863;28;20208;-72
2021/10/05 12:27:35;;;;;;;13.55;3.53;;;15.10;99.90;;;;;;5062335;28;20183;-72
2021/10/05 12:30:12;;;;;;;10.65;2.53;;;15.10;99.90;;;;;;5045030;28;20284;-72
2021/10/05 12:32:48;;;;;;;3.45;2.15;;;15.10;99.90;;;;;;5063986;28;20186;-71
2021/10/05 12:35:28;;;;;;;8.32;2.25;;;15.00;99.90;;;;;;5074067;28;20190;-71
2021/10/05 12:38:04;;;;;;;10.48;2.45;;;15.00;99.90;;;;;;5060234;28;20201;-71
2021/10/05 12:41:00;;;;;;;8.02;2.25;;;15.00;99.90;;;;;;5066433;28;20182;-71
2021/10/05 12:43:35;;;;;;;5.47;2.33;;;15.00;99.90;;;;;;5050318;28;20218;-72
2021/10/05 12:46:04;;;;;;;12.15;2.50;;;14.90;99.90;;;;;;5050312;28;20965;-74
2021/10/05 12:48:41;;;;;;;6.57;2.38;;;14.90;99.90;;;;;;5067080;28;20684;-72
2021/10/05 12:51:18;;;;;;;7.00;2.25;;;14.90;99.90;;;;;;5066904;28;20188;-72
2021/10/05 12:53:47;;;;;;;8.68;2.42;;;14.90;99.90;;;;;;5066279;28;20282;-74